createdAt,value
2019-04-06T00:01:06.200Z,0
2019-04-06T00:06:06.336Z,0
2019-04-06T00:10:07.094Z,0
2019-04-06T00:15:08.434Z,0
2019-04-06T00:20:07.491Z,0
2019-04-06T00:25:06.702Z,0
2019-04-06T00:30:08.152Z,0
2019-04-06T00:35:07.221Z,0
2019-04-06T00:40:06.970Z,0
2019-04-06T00:44:07.539Z,0
2019-04-06T00:49:06.793Z,0
2019-04-06T00:54:06.934Z,0
2019-04-06T00:59:07.191Z,0
2019-04-06T01:04:10.191Z,0
2019-04-06T01:09:08.195Z,0
2019-04-06T01:14:08.383Z,0
2019-04-06T01:19:07.362Z,0
2019-04-06T01:23:06.836Z,0
2019-04-06T01:24:06.837Z,0
2019-04-06T01:28:07.213Z,0
2019-04-06T01:33:07.076Z,0
2019-04-06T01:38:07.364Z,0
2019-04-06T01:43:06.966Z,0
2019-04-06T01:48:07.077Z,0
2019-04-06T01:53:07.359Z,0
2019-04-06T01:57:06.661Z,0
2019-04-06T02:02:06.981Z,0
2019-04-06T02:07:07.242Z,0
2019-04-06T02:12:06.935Z,0
2019-04-06T02:17:07.330Z,0
2019-04-06T02:22:06.563Z,0
2019-04-06T02:27:06.786Z,0
2019-04-06T02:31:06.648Z,0
2019-04-06T02:36:06.204Z,0
2019-04-06T02:41:05.966Z,0
2019-04-06T02:46:06.637Z,0
2019-04-06T02:51:05.923Z,0
2019-04-06T02:56:06.184Z,0
2019-04-06T03:01:06.794Z,0
2019-04-06T03:05:07.120Z,0
2019-04-06T03:11:07.755Z,0
2019-04-06T03:15:08.034Z,0
2019-04-06T03:20:06.739Z,0
2019-04-06T03:25:06.118Z,0
2019-04-06T03:30:08.231Z,0
2019-04-06T03:35:06.136Z,0
2019-04-06T03:40:06.196Z,0
2019-04-06T03:44:07.985Z,0
2019-04-06T03:45:08.022Z,0
2019-04-06T03:49:06.805Z,0
2019-04-06T03:54:06.798Z,0
2019-04-06T03:59:06.561Z,0.83
2019-04-06T04:04:07.295Z,2.5
2019-04-06T04:09:08.076Z,5.83
2019-04-06T04:14:07.497Z,14.17
2019-04-06T04:19:07.472Z,34.17
2019-04-06T04:24:06.870Z,72.5
2019-04-06T04:28:07.303Z,133.33
2019-04-06T04:33:06.616Z,225.83
2019-04-06T04:38:06.906Z,345
2019-04-06T04:43:06.819Z,497.5
2019-04-06T04:48:06.855Z,680
2019-04-06T04:53:06.385Z,915
2019-04-06T04:58:06.593Z,1184.17
2019-04-06T05:02:06.660Z,1472.5
2019-04-06T05:07:06.021Z,1806.67
2019-04-06T05:12:06.891Z,2120
2019-04-06T05:17:06.867Z,2490.83
2019-04-06T05:22:06.285Z,2960.83
2019-04-06T05:27:06.523Z,3647.5
2019-04-06T05:32:06.912Z,3495.83
2019-04-06T05:36:07.262Z,3629.17
2019-04-06T05:42:06.125Z,4615
2019-04-06T05:46:07.317Z,5688.33
2019-04-06T05:51:07.555Z,6740.83
2019-04-06T05:56:06.770Z,7857.5
2019-04-06T06:01:10.164Z,9171.67
2019-04-06T06:06:06.528Z,9749.17
2019-04-06T06:11:06.406Z,11038.33
2019-04-06T06:15:09.189Z,10705.83
2019-04-06T06:16:06.982Z,10705.83
2019-04-06T06:21:06.760Z,11167.5
2019-04-06T06:25:06.123Z,10224.17
2019-04-06T06:30:08.112Z,9670
2019-04-06T06:35:06.816Z,9594.17
2019-04-06T06:40:07.323Z,9058.33
2019-04-06T06:45:08.003Z,11004.17
2019-04-06T06:49:06.919Z,12944.17
2019-04-06T06:55:06.869Z,16766.67
2019-04-06T06:59:06.694Z,16476.67
2019-04-06T07:04:07.569Z,12990
2019-04-06T07:09:07.523Z,20271.67
2019-04-06T07:14:07.104Z,21068.33
2019-04-06T07:19:07.197Z,23833.33
2019-04-06T07:24:07.587Z,23860.83
2019-04-06T07:28:06.413Z,24761.67
2019-04-06T07:33:06.534Z,25595
2019-04-06T07:38:06.864Z,25983.33
2019-04-06T07:43:08.388Z,25274.17
2019-04-06T07:48:07.109Z,26070.83
2019-04-06T07:53:07.810Z,28053.33
2019-04-06T07:58:07.235Z,27147.5
2019-04-06T08:02:07.645Z,29418.33
2019-04-06T08:07:06.866Z,30266.67
2019-04-06T08:12:07.616Z,28711.67
2019-04-06T08:17:06.940Z,29368.33
2019-04-06T08:22:07.316Z,30185.83
2019-04-06T08:27:07.535Z,32927.5
2019-04-06T08:31:07.104Z,33473.33
2019-04-06T08:36:07.283Z,36695
2019-04-06T08:41:07.121Z,45388.33
2019-04-06T08:46:07.324Z,45272.5
2019-04-06T08:51:07.794Z,45729.16
2019-04-06T08:56:07.561Z,38363.33
2019-04-06T09:01:07.693Z,38060
2019-04-06T09:05:07.000Z,39595
2019-04-06T09:10:06.965Z,38718.33
2019-04-06T09:15:09.493Z,39522.5
2019-04-06T09:20:07.331Z,38650.83
2019-04-06T09:25:06.672Z,37799.16
2019-04-06T09:30:08.445Z,37761.66
2019-04-06T09:35:06.947Z,43057.5
2019-04-06T09:39:08.092Z,43571.66
2019-04-06T09:40:07.210Z,43571.66
2019-04-06T09:44:06.787Z,42605.83
2019-04-06T09:49:06.621Z,38764.16
2019-04-06T09:54:08.266Z,38069.16
2019-04-06T09:59:06.928Z,42354.16
2019-04-06T10:04:06.287Z,42439.16
2019-04-06T10:09:07.459Z,41928.33
2019-04-06T10:14:06.696Z,42645
2019-04-06T10:18:07.435Z,25546.67
2019-04-06T10:23:06.966Z,45940
2019-04-06T10:28:07.100Z,45311.66
2019-04-06T10:33:07.498Z,45726.66
2019-04-06T10:38:06.806Z,42640.83
2019-04-06T10:43:06.718Z,35639.16
2019-04-06T10:48:06.032Z,49718.33
2019-04-06T10:53:06.740Z,45955
2019-04-06T10:57:07.162Z,46045.83
2019-04-06T11:02:07.125Z,44462.5
2019-04-06T11:07:07.616Z,43827.5
2019-04-06T11:12:07.052Z,44755
2019-04-06T11:17:07.370Z,45537.5
2019-04-06T11:22:06.999Z,46369.16
2019-04-06T11:26:06.263Z,43571.66
2019-04-06T11:31:06.616Z,46480
2019-04-06T11:36:05.934Z,44441.66
2019-04-06T11:41:05.999Z,44359.16
2019-04-06T11:46:06.674Z,44725.83
2019-04-06T11:51:06.072Z,48595.83
2019-04-06T11:56:06.653Z,47714.16
2019-04-06T12:00:08.525Z,47468.33
2019-04-06T12:05:06.085Z,44913.33
2019-04-06T12:10:06.833Z,44875.83
2019-04-06T12:15:07.680Z,46586.66
2019-04-06T12:20:05.922Z,42112.5
2019-04-06T12:25:06.299Z,42450
2019-04-06T12:30:07.771Z,40481.66
2019-04-06T12:35:06.684Z,42835.83
2019-04-06T12:39:07.566Z,39610.83
2019-04-06T12:44:07.067Z,42541.66
2019-04-06T12:49:07.560Z,41831.66
2019-04-06T12:54:06.929Z,37654.16
2019-04-06T12:59:07.309Z,38935
2019-04-06T13:04:06.481Z,39220.83
2019-04-06T13:09:07.627Z,40261.66
2019-04-06T13:14:06.008Z,37511.66
2019-04-06T13:18:06.854Z,38094.16
2019-04-06T13:19:06.138Z,38094.16
2019-04-06T13:23:07.336Z,43584.16
2019-04-06T13:28:06.863Z,44839.16
2019-04-06T13:33:06.983Z,42295
2019-04-06T13:38:07.414Z,48390
2019-04-06T13:43:07.158Z,46775
2019-04-06T13:48:07.451Z,41335
2019-04-06T13:52:06.575Z,35340.83
2019-04-06T13:57:06.104Z,31619.17
2019-04-06T14:02:06.829Z,31174.17
2019-04-06T14:07:07.381Z,30358.33
2019-04-06T14:12:07.484Z,28300
2019-04-06T14:17:08.049Z,28906.67
2019-04-06T14:22:06.271Z,29706.67
2019-04-06T14:27:06.718Z,30659.17
2019-04-06T14:31:07.314Z,29317.5
2019-04-06T14:36:10.243Z,27336.67
2019-04-06T14:41:07.319Z,26329.17
2019-04-06T14:46:07.241Z,26499.17
2019-04-06T14:51:06.596Z,26115.83
2019-04-06T14:56:07.335Z,26560
2019-04-06T15:01:07.201Z,24078.33
2019-04-06T15:05:06.242Z,17369.17
2019-04-06T15:10:06.990Z,18309.17
2019-04-06T15:15:07.539Z,22112.5
2019-04-06T15:20:06.637Z,21138.33
2019-04-06T15:25:06.936Z,19725
2019-04-06T15:30:07.475Z,19205
2019-04-06T15:34:07.495Z,15803.33
2019-04-06T15:35:07.214Z,15803.33
2019-04-06T15:39:07.916Z,15325.83
2019-04-06T15:44:07.492Z,15781.67
2019-04-06T15:49:06.866Z,15464.17
2019-04-06T15:54:06.531Z,13621.67
2019-04-06T15:59:07.083Z,12927.5
2019-04-06T16:04:06.759Z,11374.17
2019-04-06T16:08:08.070Z,9646.67
2019-04-06T16:13:07.130Z,8753.33
2019-04-06T16:18:07.203Z,7560
2019-04-06T16:23:07.997Z,8068.33
2019-04-06T16:28:07.992Z,6784.17
2019-04-06T16:33:10.178Z,7137.5
2019-04-06T16:38:07.771Z,6005.83
2019-04-06T16:43:07.638Z,6003.33
2019-04-06T16:47:07.641Z,5297.5
2019-04-06T16:48:07.354Z,5297.5
2019-04-06T16:52:07.745Z,4804.17
2019-04-06T16:57:07.040Z,4369.17
2019-04-06T17:02:07.744Z,3605
2019-04-06T17:07:06.504Z,3045.83
2019-04-06T17:12:07.217Z,2498.33
2019-04-06T17:17:07.319Z,2068.33
2019-04-06T17:21:08.297Z,1704.17
2019-04-06T17:26:07.131Z,1384.17
2019-04-06T17:31:07.330Z,1085
2019-04-06T17:36:07.502Z,829.17
2019-04-06T17:41:07.753Z,600.83
2019-04-06T17:46:07.118Z,417.5
2019-04-06T17:50:07.478Z,270.83
2019-04-06T17:55:06.736Z,166.67
2019-04-06T18:00:09.821Z,94.17
2019-04-06T18:05:07.381Z,45
2019-04-06T18:10:06.395Z,19.17
2019-04-06T18:15:08.012Z,7.5
2019-04-06T18:20:07.301Z,2.5
2019-04-06T18:24:07.615Z,0.83
2019-04-06T18:29:07.781Z,0
2019-04-06T18:34:06.088Z,0
2019-04-06T18:39:08.239Z,0
2019-04-06T18:44:07.918Z,0
2019-04-06T18:49:06.623Z,0
2019-04-06T18:54:10.577Z,0
2019-04-06T18:58:14.332Z,0
2019-04-06T19:03:17.533Z,0
2019-04-06T19:08:07.499Z,0
2019-04-06T19:13:07.788Z,0
2019-04-06T19:18:06.923Z,0
2019-04-06T19:23:08.146Z,0
2019-04-06T19:28:08.021Z,0
2019-04-06T19:32:06.381Z,0
2019-04-06T19:33:08.288Z,0
2019-04-06T19:38:06.743Z,0
2019-04-06T19:43:07.741Z,0
2019-04-06T19:47:07.627Z,0
2019-04-06T19:52:07.323Z,0
2019-04-06T19:57:07.582Z,0
2019-04-06T20:02:07.714Z,0
2019-04-06T20:07:07.301Z,0
2019-04-06T20:12:09.068Z,0
2019-04-06T20:16:08.034Z,0
2019-04-06T20:21:07.291Z,0
2019-04-06T20:26:07.920Z,0
2019-04-06T20:31:07.418Z,0
2019-04-06T20:36:07.223Z,0
2019-04-06T20:41:07.454Z,0
2019-04-06T20:46:07.207Z,0
2019-04-06T20:50:06.121Z,0
2019-04-06T20:55:06.710Z,0
2019-04-06T21:00:09.642Z,0
2019-04-06T21:05:07.882Z,0
2019-04-06T21:10:07.749Z,0
2019-04-06T21:15:21.501Z,0
2019-04-06T21:19:06.748Z,0
2019-04-06T21:20:07.379Z,0
2019-04-06T21:24:06.777Z,0
2019-04-06T21:29:06.675Z,0
2019-04-06T21:34:11.811Z,0
2019-04-06T21:39:07.046Z,0
2019-04-06T21:44:06.579Z,0
2019-04-06T21:49:06.599Z,0
2019-04-06T21:54:06.719Z,0
2019-04-06T21:58:08.510Z,0
2019-04-06T22:03:06.339Z,0
2019-04-06T22:08:06.093Z,0
2019-04-06T22:13:06.974Z,0
2019-04-06T22:18:07.799Z,0
2019-04-06T22:23:07.368Z,0
2019-04-06T22:28:07.216Z,0
2019-04-06T22:33:07.311Z,0
2019-04-06T22:37:08.541Z,0
2019-04-06T22:42:07.676Z,0
2019-04-06T22:47:07.710Z,0
2019-04-06T22:52:06.967Z,0
2019-04-06T22:57:06.868Z,0
2019-04-06T23:02:08.011Z,0
2019-04-06T23:07:08.436Z,0
2019-04-06T23:11:08.939Z,0
2019-04-06T23:16:07.231Z,0
2019-04-06T23:21:08.482Z,0
2019-04-06T23:26:06.731Z,0
2019-04-06T23:31:07.084Z,0
2019-04-06T23:36:07.809Z,0
2019-04-06T23:41:07.550Z,0
2019-04-06T23:46:07.849Z,0
2019-04-06T23:51:07.355Z,0
2019-04-06T23:55:07.162Z,0
